Terminal Aerodrome Forecast
Issued by NWS Detroit/Pontiac, MI

Home | Current Version | Previous Version | Text Only | Print | Product List | Glossary On
Versions: 1 2 3 4 5 6 7 8 9 10 11 12 13 14 15 16 17 18 19 20 21 22 23 24 25
000
FTUS43 KDTX 041720
TAFDTW
TAF
KDTW 041720Z 0418/0524 16006KT P6SM BKN035 OVC070
     FM042200 13008KT P6SM BKN025 OVC035
     FM050000 14005KT 1 1/2SM -SN BR BKN008 OVC028
     FM050500 24006KT 5SM BR BKN010 OVC040
     FM051000 26007KT P6SM OVC015
     FM051800 22008KT P6SM SCT018 BKN035=

USA.gov is the U.S. government's official web portal to all federal, state and local government web resources and services.